createdAt,value
2018-05-26T00:00:12.862Z,15.90
2018-05-26T00:02:43.378Z,16.00
2018-05-26T00:05:13.877Z,16.00
2018-05-26T00:07:45.083Z,16.00
2018-05-26T00:10:15.605Z,15.90
2018-05-26T00:12:46.052Z,16.00
2018-05-26T00:15:16.611Z,15.90
2018-05-26T00:17:47.025Z,15.90
2018-05-26T00:20:17.550Z,15.90
2018-05-26T00:22:54.071Z,15.90
2018-05-26T00:25:24.592Z,15.90
2018-05-26T00:27:55.016Z,15.90
2018-05-26T00:30:25.489Z,15.90
2018-05-26T00:32:55.984Z,15.90
2018-05-26T00:35:26.480Z,15.90
2018-05-26T00:37:57.663Z,15.90
2018-05-26T00:40:30.020Z,15.90
2018-05-26T00:43:00.579Z,15.90
2018-05-26T00:45:31.383Z,15.90
2018-05-26T00:48:02.715Z,15.80
2018-05-26T00:50:33.510Z,15.80
2018-05-26T00:53:03.979Z,15.70
2018-05-26T00:55:34.612Z,15.70
2018-05-26T00:58:05.115Z,15.70
2018-05-26T01:00:35.527Z,15.60
2018-05-26T01:03:05.988Z,15.60
2018-05-26T01:05:36.459Z,15.50
2018-05-26T01:08:06.992Z,15.50
2018-05-26T01:10:37.473Z,15.40
2018-05-26T01:13:08.023Z,15.40
2018-05-26T01:15:38.455Z,15.40
2018-05-26T01:18:09.137Z,15.30
2018-05-26T01:20:40.541Z,15.30
2018-05-26T01:23:10.851Z,15.20
2018-05-26T01:25:41.308Z,15.20
2018-05-26T01:28:12.610Z,15.10
2018-05-26T01:30:43.987Z,15.10
2018-05-26T01:33:14.578Z,15.00
2018-05-26T01:35:45.057Z,15.00
2018-05-26T01:38:15.627Z,15.00
2018-05-26T01:40:46.147Z,15.00
2018-05-26T01:43:16.756Z,14.90
2018-05-26T01:45:47.981Z,14.90
2018-05-26T01:48:18.588Z,14.90
2018-05-26T01:50:49.095Z,14.80
2018-05-26T01:53:19.637Z,14.80
2018-05-26T01:55:50.099Z,14.80
2018-05-26T01:58:20.648Z,14.70
2018-05-26T02:00:51.975Z,14.60
2018-05-26T02:03:22.571Z,14.60
2018-05-26T02:05:53.034Z,14.70
2018-05-26T02:08:23.676Z,14.70
2018-05-26T02:10:54.243Z,14.70
2018-05-26T02:13:25.456Z,14.60
2018-05-26T02:15:55.949Z,14.60
2018-05-26T02:18:26.453Z,14.60
2018-05-26T02:20:57.102Z,14.60
2018-05-26T02:23:28.659Z,14.60
2018-05-26T02:26:00.767Z,14.60
2018-05-26T02:28:31.357Z,14.60
2018-05-26T02:31:01.840Z,14.60
2018-05-26T02:33:33.166Z,14.60
2018-05-26T02:36:03.544Z,14.60
2018-05-26T02:38:34.044Z,14.60
2018-05-26T02:41:05.251Z,14.60
2018-05-26T02:43:35.882Z,14.60
2018-05-26T02:46:07.201Z,14.70
2018-05-26T02:48:37.723Z,14.60
2018-05-26T02:51:08.219Z,14.60
2018-05-26T02:53:39.495Z,14.70
2018-05-26T02:56:09.976Z,14.60
2018-05-26T02:58:40.495Z,14.60
2018-05-26T03:01:11.816Z,14.60
2018-05-26T03:03:42.330Z,14.60
2018-05-26T03:06:17.939Z,14.60
2018-05-26T03:08:53.855Z,14.50
2018-05-26T03:11:29.551Z,14.50
2018-05-26T03:14:05.308Z,14.50
2018-05-26T03:16:39.723Z,14.50
2018-05-26T03:19:10.352Z,14.40
2018-05-26T03:21:40.804Z,14.40
2018-05-26T03:24:11.373Z,14.40
2018-05-26T03:26:41.917Z,14.40
2018-05-26T03:29:13.200Z,14.40
2018-05-26T03:31:43.661Z,14.40
2018-05-26T03:34:14.988Z,14.40
2018-05-26T03:36:45.418Z,14.40
2018-05-26T03:39:15.966Z,14.40
2018-05-26T03:41:46.511Z,14.40
2018-05-26T03:44:17.041Z,14.40
2018-05-26T03:46:47.504Z,14.40
2018-05-26T03:49:18.818Z,14.40
2018-05-26T03:51:49.468Z,14.40
2018-05-26T03:54:20.868Z,14.50
2018-05-26T03:57:09.065Z,14.40
2018-05-26T03:59:57.247Z,14.50
2018-05-26T04:02:27.748Z,14.50
2018-05-26T04:04:59.020Z,14.50
2018-05-26T04:07:29.471Z,14.50
2018-05-26T04:10:00.075Z,14.50
2018-05-26T04:12:31.593Z,14.60
2018-05-26T04:15:02.136Z,14.60
2018-05-26T04:17:32.636Z,14.60
2018-05-26T04:20:03.233Z,14.70
2018-05-26T04:22:33.867Z,14.70
2018-05-26T04:25:04.441Z,14.70
2018-05-26T04:27:34.898Z,14.80
2018-05-26T04:30:05.491Z,14.80
2018-05-26T04:32:35.951Z,14.90
2018-05-26T04:35:06.652Z,15.00
2018-05-26T04:37:37.981Z,15.10
2018-05-26T04:40:08.504Z,15.00
2018-05-26T04:42:38.999Z,15.10
2018-05-26T04:45:09.582Z,15.10
2018-05-26T04:47:40.074Z,15.10
2018-05-26T04:50:10.664Z,15.20
2018-05-26T04:52:41.241Z,15.20
2018-05-26T04:55:11.751Z,15.30
2018-05-26T04:57:42.198Z,15.40
2018-05-26T05:00:13.619Z,15.50
2018-05-26T05:02:44.142Z,15.40
2018-05-26T05:05:14.687Z,15.50
2018-05-26T05:07:45.186Z,15.60
2018-05-26T05:10:15.762Z,15.60
2018-05-26T05:12:46.319Z,15.70
2018-05-26T05:15:19.605Z,15.70
2018-05-26T05:17:50.171Z,15.80
2018-05-26T05:20:20.773Z,15.80
2018-05-26T05:22:51.263Z,15.80
2018-05-26T05:25:21.759Z,15.90
2018-05-26T05:27:52.226Z,15.90
2018-05-26T05:30:22.832Z,16.00
2018-05-26T05:32:53.303Z,16.10
2018-05-26T05:35:23.862Z,16.10
2018-05-26T05:37:55.107Z,16.20
2018-05-26T05:40:26.361Z,16.20
2018-05-26T05:42:56.846Z,16.20
2018-05-26T05:45:27.537Z,16.30
2018-05-26T05:47:57.973Z,16.30
2018-05-26T05:50:28.523Z,16.40
2018-05-26T05:52:58.959Z,16.50
2018-05-26T05:55:29.477Z,16.60
2018-05-26T05:58:00.364Z,16.60
2018-05-26T06:00:30.912Z,16.70
2018-05-26T06:03:01.339Z,16.80
2018-05-26T06:05:31.822Z,16.80
2018-05-26T06:08:03.157Z,17.00
2018-05-26T06:10:33.745Z,17.00
2018-05-26T06:13:04.193Z,17.00
2018-05-26T06:15:34.664Z,17.10
2018-05-26T06:18:05.192Z,17.20
2018-05-26T06:20:36.486Z,17.30
2018-05-26T06:23:07.810Z,17.30
2018-05-26T06:25:39.405Z,17.40
2018-05-26T06:28:10.923Z,17.50
2018-05-26T06:30:41.487Z,17.50
2018-05-26T06:33:11.879Z,17.60
2018-05-26T06:35:42.397Z,17.60
2018-05-26T06:38:13.693Z,17.80
2018-05-26T06:40:44.195Z,17.80
2018-05-26T06:43:14.697Z,17.80
2018-05-26T06:45:45.350Z,17.90
2018-05-26T06:48:15.810Z,18.00
2018-05-26T06:50:46.357Z,18.10
2018-05-26T06:53:16.866Z,18.10
2018-05-26T06:55:53.616Z,18.20
2018-05-26T06:58:24.036Z,18.30
2018-05-26T07:00:54.494Z,18.40
2018-05-26T07:03:25.654Z,18.50
2018-05-26T07:05:56.105Z,18.50
2018-05-26T07:08:26.616Z,18.60
2018-05-26T07:10:57.121Z,18.70
2018-05-26T07:13:27.543Z,18.80
2018-05-26T07:15:58.046Z,18.80
2018-05-26T07:18:28.431Z,18.90
2018-05-26T07:20:59.667Z,19.10
2018-05-26T07:23:30.868Z,19.20
2018-05-26T07:26:01.409Z,19.20
2018-05-26T07:28:32.623Z,19.40
2018-05-26T07:31:03.143Z,19.40
2018-05-26T07:33:33.676Z,19.50
2018-05-26T07:36:04.160Z,19.70
2018-05-26T07:38:34.563Z,19.80
2018-05-26T07:41:05.087Z,19.90
2018-05-26T07:43:35.511Z,19.90
2018-05-26T07:46:06.263Z,20.00
2018-05-26T07:48:37.506Z,20.30
2018-05-26T07:51:08.003Z,20.30
2018-05-26T07:53:38.520Z,20.40
2018-05-26T07:56:09.030Z,20.40
2018-05-26T07:58:40.265Z,20.70
2018-05-26T08:01:10.761Z,20.70
2018-05-26T08:03:41.988Z,20.90
2018-05-26T08:06:12.537Z,20.90
2018-05-26T08:08:43.068Z,21.00
2018-05-26T08:11:13.701Z,21.10
2018-05-26T08:13:44.147Z,21.20
2018-05-26T08:16:15.485Z,21.40
2018-05-26T08:18:46.772Z,21.50
2018-05-26T08:21:17.396Z,21.50
2018-05-26T08:23:47.826Z,21.60
2018-05-26T08:26:18.398Z,21.70
2018-05-26T08:28:48.923Z,21.80
2018-05-26T08:31:19.508Z,21.90
2018-05-26T08:33:50.123Z,22.10
2018-05-26T08:36:21.388Z,22.30
2018-05-26T08:38:52.014Z,22.30
2018-05-26T08:41:22.491Z,22.40
2018-05-26T08:43:54.311Z,22.50
2018-05-26T08:46:24.847Z,22.70
2018-05-26T08:48:55.370Z,22.80
2018-05-26T08:51:26.088Z,22.90
2018-05-26T08:53:56.568Z,23.00
2018-05-26T08:56:27.070Z,23.10
2018-05-26T08:58:59.652Z,23.30
2018-05-26T09:01:30.206Z,23.40
2018-05-26T09:04:01.569Z,23.50
2018-05-26T09:06:32.978Z,23.70
2018-05-26T09:09:03.489Z,23.70
2018-05-26T09:11:34.004Z,23.90
2018-05-26T09:14:04.512Z,24.00
2018-05-26T09:16:36.238Z,24.10
2018-05-26T09:19:06.907Z,24.20
2018-05-26T09:21:37.510Z,24.20
2018-05-26T09:24:08.625Z,24.40
2018-05-26T09:26:39.914Z,24.60
2018-05-26T09:29:11.878Z,24.50
2018-05-26T09:31:42.799Z,24.70
2018-05-26T09:34:13.222Z,24.90
2018-05-26T09:36:43.993Z,24.90
2018-05-26T09:39:16.832Z,25.00
2018-05-26T09:41:48.665Z,25.10
2018-05-26T09:44:19.121Z,25.20
2018-05-26T09:46:49.577Z,25.30
2018-05-26T09:49:20.152Z,25.40
2018-05-26T09:51:50.815Z,25.50
2018-05-26T09:54:21.267Z,25.60
2018-05-26T09:56:52.698Z,25.80
2018-05-26T09:59:23.232Z,25.70
2018-05-26T10:01:53.789Z,25.90
2018-05-26T10:04:24.246Z,26.00
2018-05-26T10:06:56.159Z,26.00
2018-05-26T10:09:27.857Z,26.20
2018-05-26T10:11:58.454Z,26.20
2018-05-26T10:14:29.693Z,26.50
2018-05-26T10:17:00.298Z,26.50
2018-05-26T10:19:30.734Z,26.60
2018-05-26T10:22:02.056Z,26.80
2018-05-26T10:24:32.651Z,26.80
2018-05-26T10:27:03.164Z,26.90
2018-05-26T10:29:34.366Z,27.10
2018-05-26T10:32:04.950Z,27.10
2018-05-26T10:34:35.511Z,27.20
2018-05-26T10:37:06.130Z,27.30
2018-05-26T10:39:36.590Z,27.40
2018-05-26T10:42:07.188Z,27.50
2018-05-26T10:44:37.677Z,27.60
2018-05-26T10:47:09.084Z,27.90
2018-05-26T10:49:39.583Z,27.90
2018-05-26T10:52:10.355Z,28.00
2018-05-26T10:54:40.823Z,28.10
2018-05-26T10:57:11.295Z,28.10
2018-05-26T10:59:41.669Z,28.20
2018-05-26T11:02:12.124Z,28.30
2018-05-26T11:04:43.287Z,28.50
2018-05-26T11:07:13.757Z,28.40
2018-05-26T11:09:44.993Z,28.60
2018-05-26T11:12:15.578Z,28.60
2018-05-26T11:14:46.013Z,28.70
2018-05-26T11:17:17.077Z,28.80
2018-05-26T11:19:47.446Z,28.90
2018-05-26T11:22:17.900Z,29.00
2018-05-26T11:24:48.302Z,29.10
2018-05-26T11:27:18.743Z,29.30
2018-05-26T11:29:49.169Z,29.50
2018-05-26T11:32:19.598Z,29.40
2018-05-26T11:34:49.941Z,29.30
2018-05-26T11:37:20.379Z,29.40
2018-05-26T11:39:50.978Z,29.40
2018-05-26T11:42:21.564Z,29.60
2018-05-26T11:44:52.655Z,29.60
2018-05-26T11:47:23.068Z,29.60
2018-05-26T11:49:53.412Z,29.80
2018-05-26T11:52:23.862Z,29.80
2018-05-26T11:54:54.300Z,29.90
2018-05-26T11:57:25.521Z,30.20
2018-05-26T11:59:55.834Z,30.20
2018-05-26T12:02:26.398Z,30.40
2018-05-26T12:04:56.790Z,30.50
2018-05-26T12:07:27.202Z,30.60
2018-05-26T12:09:57.548Z,30.70
2018-05-26T12:12:27.976Z,30.80
2018-05-26T12:14:58.321Z,31.00
2018-05-26T12:17:28.773Z,31.20
2018-05-26T12:20:02.181Z,31.10
2018-05-26T12:22:32.614Z,31.20
2018-05-26T12:25:02.979Z,31.20
2018-05-26T12:27:34.352Z,31.50
2018-05-26T12:30:05.686Z,31.50
2018-05-26T12:32:36.188Z,31.50
2018-05-26T12:35:06.553Z,31.50
2018-05-26T12:37:37.005Z,31.70
2018-05-26T12:40:07.399Z,31.70
2018-05-26T12:42:39.146Z,31.70
2018-05-26T12:45:10.828Z,31.90
2018-05-26T12:47:42.426Z,32.10
2018-05-26T12:50:13.041Z,32.30
2018-05-26T12:52:43.906Z,32.30
2018-05-26T12:55:14.839Z,32.50
2018-05-26T12:57:46.573Z,32.60
2018-05-26T13:00:17.764Z,32.80
2018-05-26T13:02:48.310Z,32.80
2018-05-26T13:05:19.557Z,33.00
2018-05-26T13:07:50.783Z,33.10
2018-05-26T13:10:21.121Z,33.00
2018-05-26T13:12:51.631Z,32.80
2018-05-26T13:15:21.983Z,32.60
2018-05-26T13:17:52.447Z,32.60
2018-05-26T13:20:22.941Z,32.60
2018-05-26T13:22:53.432Z,32.80
2018-05-26T13:25:23.790Z,33.00
2018-05-26T13:27:54.973Z,33.40
2018-05-26T13:30:25.449Z,33.30
2018-05-26T13:32:56.004Z,33.30
2018-05-26T13:35:26.356Z,33.20
2018-05-26T13:37:56.787Z,33.10
2018-05-26T13:40:27.138Z,33.00
2018-05-26T13:42:57.609Z,33.00
2018-05-26T13:45:28.090Z,33.00
2018-05-26T13:47:58.575Z,33.10
2018-05-26T13:50:29.878Z,33.30
2018-05-26T13:53:00.417Z,33.30
2018-05-26T13:55:30.907Z,33.40
2018-05-26T13:58:01.453Z,33.60
2018-05-26T14:00:31.912Z,33.70
2018-05-26T14:03:03.192Z,33.90
2018-05-26T14:05:33.624Z,33.90
2018-05-26T14:08:04.134Z,34.00
2018-05-26T14:10:34.544Z,34.10
2018-05-26T14:13:05.066Z,34.20
2018-05-26T14:15:35.623Z,34.20
2018-05-26T14:18:06.290Z,34.10
2018-05-26T14:20:36.941Z,34.20
2018-05-26T14:23:07.546Z,34.20
2018-05-26T14:25:37.959Z,34.30
2018-05-26T14:28:08.480Z,34.40
2018-05-26T14:30:39.007Z,34.60
2018-05-26T14:33:09.501Z,34.70
2018-05-26T14:35:39.978Z,34.90
2018-05-26T14:38:10.427Z,35.10
2018-05-26T14:40:40.982Z,35.30
2018-05-26T14:43:12.209Z,35.30
2018-05-26T14:45:42.773Z,35.20
2018-05-26T14:48:13.983Z,35.50
2018-05-26T14:50:44.515Z,35.40
2018-05-26T14:53:14.925Z,35.50
2018-05-26T14:55:46.276Z,35.40
2018-05-26T14:58:16.760Z,35.30
2018-05-26T15:00:47.344Z,35.50
2018-05-26T15:03:17.796Z,35.50
2018-05-26T15:05:49.135Z,35.70
2018-05-26T15:08:20.294Z,35.70
2018-05-26T15:10:51.578Z,35.70
2018-05-26T15:13:22.085Z,35.70
2018-05-26T15:15:52.661Z,35.70
2018-05-26T15:18:23.127Z,35.60
2018-05-26T15:20:54.428Z,35.50
2018-05-26T15:23:24.938Z,35.50
2018-05-26T15:25:55.467Z,35.60
2018-05-26T15:28:25.979Z,35.50
2018-05-26T15:30:56.578Z,35.40
2018-05-26T15:33:27.182Z,35.30
2018-05-26T15:35:57.688Z,35.20
2018-05-26T15:38:28.203Z,35.20
2018-05-26T15:40:58.749Z,35.20
2018-05-26T15:43:29.174Z,35.10
2018-05-26T15:45:59.719Z,35.00
2018-05-26T15:48:30.083Z,34.90
2018-05-26T15:51:00.709Z,34.80
2018-05-26T15:53:31.224Z,34.70
2018-05-26T15:56:01.770Z,34.60
2018-05-26T15:58:32.322Z,34.50
2018-05-26T16:01:02.915Z,34.30
2018-05-26T16:03:33.313Z,34.20
2018-05-26T16:06:03.859Z,34.10
2018-05-26T16:08:35.118Z,33.70
2018-05-26T16:11:05.585Z,33.70
2018-05-26T16:13:36.055Z,33.60
2018-05-26T16:16:06.615Z,33.50
2018-05-26T16:18:37.095Z,33.40
2018-05-26T16:21:07.664Z,33.40
2018-05-26T16:23:38.940Z,33.20
2018-05-26T16:26:09.397Z,33.20
2018-05-26T16:28:40.609Z,33.20
2018-05-26T16:31:11.087Z,33.20
2018-05-26T16:33:41.493Z,33.10
2018-05-26T16:36:11.965Z,33.10
2018-05-26T16:38:43.200Z,32.90
2018-05-26T16:41:13.784Z,32.90
2018-05-26T16:43:44.227Z,32.90
2018-05-26T16:46:14.733Z,33.00
2018-05-26T16:48:45.193Z,33.10
2018-05-26T16:51:15.715Z,33.00
2018-05-26T16:53:46.238Z,33.00
2018-05-26T16:56:16.741Z,33.00
2018-05-26T16:58:47.186Z,33.00
2018-05-26T17:01:17.711Z,32.90
2018-05-26T17:03:48.175Z,32.80
2018-05-26T17:06:18.767Z,32.60
2018-05-26T17:08:50.031Z,31.90
2018-05-26T17:11:20.589Z,31.90
2018-05-26T17:13:51.104Z,31.70
2018-05-26T17:16:21.592Z,31.30
2018-05-26T17:18:52.114Z,31.00
2018-05-26T17:21:22.598Z,30.80
2018-05-26T17:23:53.190Z,30.50
2018-05-26T17:26:23.716Z,30.20
2018-05-26T17:28:54.210Z,29.90
2018-05-26T17:31:24.785Z,29.70
2018-05-26T17:33:55.326Z,29.40
2018-05-26T17:36:25.808Z,29.20
2018-05-26T17:38:56.350Z,28.90
2018-05-26T17:41:26.900Z,28.60
2018-05-26T17:43:57.454Z,28.50
2018-05-26T17:46:27.902Z,28.30
2018-05-26T17:48:58.330Z,28.10
2018-05-26T17:51:28.925Z,28.00
2018-05-26T17:54:00.234Z,27.70
2018-05-26T17:56:30.765Z,27.70
2018-05-26T17:59:01.270Z,27.60
2018-05-26T18:01:31.771Z,27.40
2018-05-26T18:04:02.205Z,27.30
2018-05-26T18:06:32.676Z,27.20
2018-05-26T18:09:03.273Z,27.20
2018-05-26T18:11:33.747Z,27.10
2018-05-26T18:14:04.267Z,27.00
2018-05-26T18:16:34.865Z,26.80
2018-05-26T18:19:06.088Z,26.60
2018-05-26T18:21:36.712Z,26.60
2018-05-26T18:24:07.222Z,26.60
2018-05-26T18:26:37.754Z,26.40
2018-05-26T18:29:08.233Z,26.20
2018-05-26T18:31:38.851Z,26.10
2018-05-26T18:34:09.311Z,25.90
2018-05-26T18:36:39.964Z,25.80
2018-05-26T18:39:10.404Z,25.70
2018-05-26T18:41:40.920Z,25.60
2018-05-26T18:44:11.735Z,25.50
2018-05-26T18:46:42.207Z,25.30
2018-05-26T18:49:12.613Z,25.20
2018-05-26T18:51:43.967Z,25.00
2018-05-26T18:54:14.387Z,24.90
2018-05-26T18:56:44.937Z,24.90
2018-05-26T18:59:15.358Z,24.80
2018-05-26T19:01:45.940Z,24.80
2018-05-26T19:04:16.436Z,24.70
2018-05-26T19:06:47.761Z,24.60
2018-05-26T19:09:18.354Z,24.50
2018-05-26T19:11:49.675Z,24.40
2018-05-26T19:14:20.167Z,24.30
2018-05-26T19:16:50.639Z,24.20
2018-05-26T19:19:21.991Z,24.00
2018-05-26T19:21:52.695Z,24.00
2018-05-26T19:24:23.518Z,23.90
2018-05-26T19:26:55.054Z,23.70
2018-05-26T19:29:25.522Z,23.70
2018-05-26T19:31:57.894Z,23.40
2018-05-26T19:34:29.725Z,23.40
2018-05-26T19:37:02.120Z,23.30
2018-05-26T19:39:34.669Z,23.20
2018-05-26T19:42:08.301Z,23.10
2018-05-26T19:44:39.256Z,23.10
2018-05-26T19:47:10.488Z,23.00
2018-05-26T19:49:40.992Z,22.90
2018-05-26T19:52:11.849Z,22.80
2018-05-26T19:54:44.320Z,22.70
2018-05-26T19:57:17.509Z,22.60
2018-05-26T19:59:49.972Z,22.60
2018-05-26T20:02:21.890Z,22.50
2018-05-26T20:04:54.361Z,22.40
2018-05-26T20:07:25.951Z,22.30
2018-05-26T20:09:58.300Z,22.20
2018-05-26T20:12:28.912Z,22.10
2018-05-26T20:14:59.552Z,21.90
2018-05-26T20:17:30.941Z,21.80
2018-05-26T20:20:01.654Z,21.70
2018-05-26T20:22:32.797Z,21.70
2018-05-26T20:25:06.387Z,21.60
2018-05-26T20:27:38.362Z,21.50
2018-05-26T20:30:10.595Z,21.40
2018-05-26T20:32:42.400Z,21.30
2018-05-26T20:35:13.660Z,21.20
2018-05-26T20:37:46.577Z,21.20
2018-05-26T20:40:17.844Z,21.10
2018-05-26T20:42:48.301Z,21.10
2018-05-26T20:45:18.750Z,21.10
2018-05-26T20:47:51.200Z,21.00
2018-05-26T20:50:21.911Z,21.00
2018-05-26T20:53:08.365Z,21.00
2018-05-26T20:55:43.790Z,21.00
2018-05-26T20:58:28.447Z,20.90
2018-05-26T21:01:17.660Z,20.80
2018-05-26T21:03:59.772Z,20.80
2018-05-26T21:06:49.401Z,20.70
2018-05-26T21:09:39.573Z,20.70
2018-05-26T21:12:26.182Z,20.60
2018-05-26T21:15:19.656Z,20.60
2018-05-26T21:20:57.240Z,20.40
2018-05-26T21:23:28.829Z,20.40
2018-05-26T21:26:23.145Z,20.40
2018-05-26T21:32:14.613Z,20.20
2018-05-26T21:35:12.982Z,20.20
2018-05-26T21:38:00.100Z,20.20
2018-05-26T21:40:55.959Z,20.10
2018-05-26T21:43:47.408Z,20.10
2018-05-26T21:46:42.784Z,20.00
2018-05-26T21:49:38.486Z,20.00
2018-05-26T21:52:42.408Z,19.90
2018-05-26T22:01:40.309Z,19.70
2018-05-26T22:04:27.060Z,19.70
2018-05-26T22:07:19.809Z,19.60
2018-05-26T22:10:15.667Z,19.50
2018-05-26T22:13:15.064Z,19.40
2018-05-26T22:16:10.689Z,19.40
2018-05-26T22:19:06.022Z,19.40
2018-05-26T22:22:00.393Z,19.30
2018-05-26T22:25:00.947Z,19.30
2018-05-26T22:27:56.754Z,19.20
2018-05-26T22:30:52.735Z,19.10
2018-05-26T22:33:44.148Z,19.00
2018-05-26T22:36:34.639Z,19.00
2018-05-26T22:42:26.992Z,18.90
2018-05-26T22:45:25.440Z,18.80
2018-05-26T22:48:22.504Z,18.70
2018-05-26T22:51:20.788Z,18.70
2018-05-26T22:54:19.017Z,18.60
2018-05-26T22:57:14.252Z,18.50
2018-05-26T23:00:06.524Z,18.50
2018-05-26T23:02:56.544Z,18.40
2018-05-26T23:05:45.937Z,18.40
2018-05-26T23:08:40.668Z,18.40
2018-05-26T23:11:34.804Z,18.30
2018-05-26T23:14:12.774Z,18.20
2018-05-26T23:17:06.647Z,18.20
2018-05-26T23:20:03.786Z,18.20
2018-05-26T23:25:34.777Z,18.10
2018-05-26T23:28:10.496Z,18.00
2018-05-26T23:30:44.558Z,18.00
2018-05-26T23:33:17.088Z,18.00
2018-05-26T23:35:50.044Z,18.00
2018-05-26T23:38:23.429Z,18.00
2018-05-26T23:41:10.901Z,17.90
2018-05-26T23:43:53.700Z,17.90
2018-05-26T23:46:46.121Z,17.90
2018-05-26T23:49:43.735Z,17.90
2018-05-26T23:52:38.659Z,17.80
2018-05-26T23:55:35.116Z,17.80
2018-05-26T23:58:31.236Z,17.80
